Time;durP1;ratioP1;P1;durP2;ratioP2;P2;SDS_P1;SDS_P2;PMS_P1;PMS_P2;Temp;Humidity;BMP_temperature;BMP_pressure;BME280_temperature;BME280_humidity;BME280_pressure;Samples;Min_cycle;Max_cycle;Signal;HPM_P1;HPM_P2
2023/06/11 00:02:21;;;;;;;7.35;6.32;;;;;;;20.62;100.00;97171.09;5090640;28;20864;-76
2023/06/11 00:04:49;;;;;;;7.00;5.95;;;;;;;20.55;100.00;97171.56;5092818;28;20406;-77
2023/06/11 00:07:15;;;;;;;7.50;6.10;;;;;;;20.50;100.00;97168.28;5094823;28;20406;-75
2023/06/11 00:09:41;;;;;;;9.98;6.28;;;;;;;20.44;100.00;97168.47;5095849;28;20505;-77
2023/06/11 00:12:08;;;;;;;8.43;6.65;;;;;;;20.40;100.00;97172.09;5096683;28;20477;-78
2023/06/11 00:14:34;;;;;;;8.40;6.65;;;;;;;20.39;100.00;97170.50;5096596;28;20401;-77
2023/06/11 00:17:00;;;;;;;7.95;6.22;;;;;;;20.34;100.00;97163.41;5096440;28;20488;-77
2023/06/11 00:19:30;;;;;;;8.07;6.60;;;;;;;20.32;100.00;97172.84;5096112;28;20394;-78
2023/06/11 00:21:56;;;;;;;7.72;6.50;;;;;;;20.29;100.00;97173.50;5095834;28;21029;-77
2023/06/11 00:24:23;;;;;;;8.65;7.07;;;;;;;20.27;100.00;97163.06;5096004;28;20729;-77
2023/06/11 00:26:50;;;;;;;8.40;6.82;;;;;;;20.26;100.00;97171.44;5096002;28;20398;-78
2023/06/11 00:29:16;;;;;;;8.25;6.80;;;;;;;20.28;100.00;97167.34;5095772;28;20420;-77
2023/06/11 00:31:42;;;;;;;9.27;7.28;;;;;;;20.26;100.00;97174.13;5095640;28;20404;-77
2023/06/11 00:34:08;;;;;;;9.20;6.80;;;;;;;20.29;100.00;97168.94;5096126;28;20867;-77
2023/06/11 00:36:36;;;;;;;8.00;6.93;;;;;;;20.23;100.00;97172.88;5095360;28;20930;-77
2023/06/11 00:39:03;;;;;;;8.03;7.07;;;;;;;20.24;100.00;97162.91;5095754;28;20398;-77
2023/06/11 00:41:31;;;;;;;8.07;6.60;;;;;;;20.23;100.00;97158.63;5095523;28;20891;-78
2023/06/11 00:43:57;;;;;;;9.27;7.27;;;;;;;20.23;100.00;97161.31;5095438;28;20483;-77
2023/06/11 00:46:24;;;;;;;8.50;7.05;;;;;;;20.22;100.00;97155.19;5095360;28;20751;-76
2023/06/11 00:48:50;;;;;;;8.35;7.00;;;;;;;20.21;100.00;97163.56;5095693;28;20409;-77
2023/06/11 00:51:20;;;;;;;8.82;7.32;;;;;;;20.16;100.00;97161.00;5095687;28;20952;-77
2023/06/11 00:53:48;;;;;;;8.50;6.80;;;;;;;20.14;100.00;97158.66;5095218;28;20928;-77
2023/06/11 00:56:17;;;;;;;8.15;7.32;;;;;;;20.10;100.00;97163.88;5095293;28;20467;-77
2023/06/11 00:58:45;;;;;;;7.50;6.57;;;;;;;20.09;100.00;97164.19;5094660;28;20471;-76
2023/06/11 01:01:17;;;;;;;8.73;7.00;;;;;;;20.09;100.00;97169.56;5093791;28;20401;-76
2023/06/11 01:03:43;;;;;;;8.02;6.80;;;;;;;20.08;100.00;97170.66;5093857;28;20394;-75
2023/06/11 01:06:17;;;;;;;8.73;6.72;;;;;;;20.05;100.00;97174.78;5093645;28;20751;-76
2023/06/11 01:08:45;;;;;;;9.40;6.82;;;;;;;20.04;100.00;97175.91;5093633;28;20406;-76
2023/06/11 01:11:22;;;;;;;8.75;7.15;;;;;;;19.99;100.00;97173.38;5093624;28;20402;-76
2023/06/11 01:13:49;;;;;;;8.30;7.35;;;;;;;19.94;100.00;97168.16;5093469;28;20496;-76
2023/06/11 01:16:25;;;;;;;9.23;7.18;;;;;;;19.91;100.00;97179.53;5093194;28;20496;-76
2023/06/11 01:19:03;;;;;;;9.18;7.38;;;;;;;19.83;100.00;97177.66;5093598;28;20868;-76
2023/06/11 01:21:38;;;;;;;7.78;6.80;;;;;;;19.75;100.00;97175.75;5093418;28;20744;-77
2023/06/11 01:24:17;;;;;;;10.90;6.72;;;;;;;19.70;100.00;97179.34;5093453;28;20397;-77
2023/06/11 01:27:06;;;;;;;8.40;7.40;;;;;;;19.66;100.00;97181.09;5093296;28;20390;-77
2023/06/11 01:29:37;;;;;;;9.27;7.75;;;;;;;19.58;100.00;97171.13;5093375;28;20406;-76
2023/06/11 01:32:05;;;;;;;9.82;7.53;;;;;;;19.54;100.00;97172.09;5093053;28;20399;-76
2023/06/11 01:34:32;;;;;;;9.73;7.72;;;;;;;19.52;100.00;97180.44;5093174;28;20448;-75
2023/06/11 01:36:59;;;;;;;8.50;7.35;;;;;;;19.46;100.00;97183.56;5093048;28;20398;-76
2023/06/11 01:39:26;;;;;;;9.73;7.73;;;;;;;19.45;100.00;97184.66;5093075;28;20905;-77
2023/06/11 01:41:54;;;;;;;10.82;7.93;;;;;;;19.44;100.00;97180.41;5092941;28;20397;-76
2023/06/11 01:44:20;;;;;;;10.85;7.68;;;;;;;19.45;100.00;97177.41;5093342;28;20883;-76
2023/06/11 01:46:48;;;;;;;9.45;7.90;;;;;;;19.44;100.00;97180.41;5092943;28;20456;-76
2023/06/11 01:49:14;;;;;;;9.27;7.45;;;;;;;19.44;100.00;97175.03;5092857;28;20447;-77
2023/06/11 01:51:40;;;;;;;10.20;7.63;;;;;;;19.44;100.00;97172.34;5092754;28;20398;-77
2023/06/11 01:54:06;;;;;;;9.52;7.80;;;;;;;19.43;100.00;97176.91;5092987;28;20417;-77
2023/06/11 01:56:33;;;;;;;10.45;7.57;;;;;;;19.42;100.00;97179.91;5092798;28;20455;-77
2023/06/11 01:59:00;;;;;;;9.32;7.97;;;;;;;19.37;100.00;97175.50;5092696;28;20409;-77
2023/06/11 02:01:28;;;;;;;9.25;7.10;;;;;;;19.38;100.00;97178.97;5092873;28;20489;-77
2023/06/11 02:03:56;;;;;;;9.68;7.82;;;;;;;19.33;100.00;97166.47;5092663;28;20426;-77
2023/06/11 02:06:23;;;;;;;9.38;8.35;;;;;;;19.33;100.00;97174.53;5091971;28;20412;-77
2023/06/11 02:08:49;;;;;;;10.75;7.38;;;;;;;19.29;100.00;97169.00;5092871;28;20410;-77
2023/06/11 02:11:15;;;;;;;8.27;7.15;;;;;;;19.27;100.00;97163.16;5092893;28;20402;-77
2023/06/11 02:13:41;;;;;;;8.85;7.40;;;;;;;19.24;100.00;97163.78;5092763;28;20401;-77
2023/06/11 02:16:08;;;;;;;9.00;7.30;;;;;;;19.20;100.00;97160.13;5092424;28;20872;-77
2023/06/11 02:18:34;;;;;;;8.50;7.30;;;;;;;19.17;100.00;97166.09;5092547;28;20398;-77
2023/06/11 02:21:01;;;;;;;8.73;7.45;;;;;;;19.15;100.00;97164.84;5092574;28;20441;-77
2023/06/11 02:23:29;;;;;;;8.98;7.45;;;;;;;19.07;100.00;97166.41;5092480;28;20398;-77
2023/06/11 02:25:55;;;;;;;14.18;8.07;;;;;;;19.05;100.00;97175.84;5090954;28;20406;-77
2023/06/11 02:28:21;;;;;;;9.25;7.75;;;;;;;18.96;100.00;97178.50;5092043;28;20405;-77
2023/06/11 02:30:47;;;;;;;10.23;7.50;;;;;;;18.93;100.00;97179.16;5092305;28;20417;-77
2023/06/11 02:33:14;;;;;;;8.60;7.45;;;;;;;18.85;100.00;97175.31;5092140;28;20428;-77
2023/06/11 02:35:40;;;;;;;8.70;7.78;;;;;;;18.82;100.00;97175.13;5092035;28;20394;-77
2023/06/11 02:38:08;;;;;;;9.77;8.10;;;;;;;18.77;100.00;97181.44;5092415;28;20413;-77
2023/06/11 02:40:34;;;;;;;10.00;8.10;;;;;;;18.70;100.00;97181.09;5091914;28;20396;-77
2023/06/11 02:43:00;;;;;;;9.60;8.15;;;;;;;18.66;100.00;97185.47;5092020;28;20398;-77
2023/06/11 02:45:26;;;;;;;9.68;8.43;;;;;;;18.57;100.00;97179.25;5091591;28;20406;-77
2023/06/11 02:47:52;;;;;;;10.27;8.13;;;;;;;18.52;100.00;97177.47;5091797;28;20442;-77
2023/06/11 02:50:19;;;;;;;8.73;7.82;;;;;;;18.48;100.00;97187.25;5091571;28;20460;-77
2023/06/11 02:52:45;;;;;;;11.15;7.88;;;;;;;18.51;100.00;97185.81;5091585;28;20397;-77
2023/06/11 02:55:13;;;;;;;9.03;7.03;;;;;;;18.46;100.00;97191.31;5091790;28;20811;-77
2023/06/11 02:57:39;;;;;;;10.82;7.68;;;;;;;18.48;100.00;97189.13;5091480;28;20555;-77
2023/06/11 03:00:10;;;;;;;10.50;7.80;;;;;;;18.46;100.00;97188.63;5091516;28;20404;-77
2023/06/11 03:02:36;;;;;;;9.02;7.47;;;;;;;18.41;100.00;97194.94;5091593;28;20398;-77
2023/06/11 03:05:05;;;;;;;8.93;7.47;;;;;;;18.39;100.00;97196.31;5091625;28;20459;-77
2023/06/11 03:07:31;;;;;;;9.88;8.15;;;;;;;18.37;100.00;97198.50;5091163;28;20394;-77
2023/06/11 03:09:57;;;;;;;10.40;8.60;;;;;;;18.35;100.00;97204.16;5091185;28;20522;-77
2023/06/11 03:12:25;;;;;;;9.80;8.52;;;;;;;18.35;100.00;97200.69;5091250;28;20394;-77
2023/06/11 03:14:51;;;;;;;10.32;8.23;;;;;;;18.34;100.00;97209.84;5091007;28;20463;-77
2023/06/11 03:17:17;;;;;;;10.05;8.27;;;;;;;18.35;100.00;97209.53;5090988;28;20477;-77
2023/06/11 03:19:43;;;;;;;10.60;8.27;;;;;;;18.34;100.00;97201.81;5091188;28;20402;-77
2023/06/11 03:22:09;;;;;;;10.15;8.15;;;;;;;18.30;100.00;97211.53;5090911;28;20390;-77
2023/06/11 03:24:36;;;;;;;13.82;8.30;;;;;;;18.31;100.00;97207.78;5091064;28;20398;-77
2023/06/11 03:27:02;;;;;;;9.43;7.90;;;;;;;18.28;100.00;97206.47;5090994;28;20444;-77
2023/06/11 03:29:29;;;;;;;10.47;7.87;;;;;;;18.27;100.00;97209.50;5090869;28;20418;-77
2023/06/11 03:31:56;;;;;;;8.80;7.18;;;;;;;18.25;100.00;97214.34;5090922;28;20398;-77
2023/06/11 03:34:22;;;;;;;8.30;7.35;;;;;;;18.23;100.00;97221.91;5091041;28;20464;-77
2023/06/11 03:36:48;;;;;;;8.52;6.70;;;;;;;18.22;100.00;97214.94;5090750;28;20410;-77
2023/06/11 03:39:16;;;;;;;9.10;8.02;;;;;;;18.24;100.00;97215.44;5088880;28;20402;-77
2023/06/11 03:41:43;;;;;;;11.35;8.20;;;;;;;18.18;100.00;97214.78;5090835;28;20398;-77
2023/06/11 03:44:10;;;;;;;9.77;7.80;;;;;;;18.14;100.00;97216.47;5090854;28;20737;-77
2023/06/11 03:46:38;;;;;;;11.40;8.30;;;;;;;18.11;100.00;97217.88;5090589;28;20398;-77
2023/06/11 03:49:04;;;;;;;10.45;8.05;;;;;;;18.11;100.00;97222.44;5090797;28;20417;-77
2023/06/11 03:51:30;;;;;;;8.43;7.55;;;;;;;18.08;100.00;97215.81;5089291;28;20402;-77
2023/06/11 03:53:57;;;;;;;9.85;7.53;;;;;;;18.07;100.00;97221.47;5091070;28;20398;-77
2023/06/11 03:56:23;;;;;;;9.40;7.93;;;;;;;18.05;100.00;97221.75;5090619;28;20467;-77
2023/06/11 03:58:49;;;;;;;9.13;7.60;;;;;;;18.02;100.00;97211.66;5090581;28;20780;-77
2023/06/11 04:01:15;;;;;;;8.55;7.60;;;;;;;18.02;100.00;97218.91;5090677;28;20405;-77
2023/06/11 04:03:43;;;;;;;9.75;7.55;;;;;;;18.03;100.00;97223.97;5090542;28;20438;-77
2023/06/11 04:06:09;;;;;;;9.43;7.78;;;;;;;18.02;100.00;97225.06;5090331;28;20961;-77
2023/06/11 04:08:35;;;;;;;9.27;7.20;;;;;;;18.02;100.00;97224.25;5090571;28;20397;-77
2023/06/11 04:11:02;;;;;;;8.20;7.07;;;;;;;18.02;100.00;97226.94;5090628;28;20402;-77
2023/06/11 04:13:28;;;;;;;8.60;7.22;;;;;;;18.02;100.00;97232.28;5090380;28;20401;-77
2023/06/11 04:15:54;;;;;;;9.00;7.60;;;;;;;18.00;100.00;97239.84;5089016;28;20406;-77
2023/06/11 04:18:20;;;;;;;9.05;7.32;;;;;;;18.00;100.00;97232.59;5090519;28;20398;-77
2023/06/11 04:20:48;;;;;;;9.30;7.75;;;;;;;18.02;100.00;97237.66;5090401;28;20485;-77
2023/06/11 04:23:14;;;;;;;9.57;7.85;;;;;;;18.03;100.00;97244.59;5090442;28;20965;-77
2023/06/11 04:25:41;;;;;;;10.60;8.05;;;;;;;18.05;100.00;97245.88;5090252;28;20395;-77
2023/06/11 04:28:08;;;;;;;9.98;8.07;;;;;;;18.05;100.00;97237.81;5090433;28;20401;-77
2023/06/11 04:30:34;;;;;;;9.52;8.30;;;;;;;18.05;100.00;97240.50;5090433;28;20483;-77
2023/06/11 04:33:03;;;;;;;10.80;7.93;;;;;;;18.09;100.00;97244.19;5090458;28;20901;-77
2023/06/11 04:35:29;;;;;;;9.43;7.65;;;;;;;18.13;100.00;97236.31;5090113;28;20408;-77
2023/06/11 04:37:57;;;;;;;8.80;7.90;;;;;;;18.16;100.00;97233.84;5090665;28;20447;-77
2023/06/11 04:40:24;;;;;;;8.73;7.82;;;;;;;18.19;100.00;97240.47;5090375;28;20409;-77
2023/06/11 04:42:50;;;;;;;9.63;7.55;;;;;;;18.25;100.00;97244.63;5090147;28;20394;-77
2023/06/11 04:45:18;;;;;;;8.65;7.32;;;;;;;18.30;100.00;97241.81;5090185;28;20398;-77
2023/06/11 04:47:45;;;;;;;10.17;7.37;;;;;;;18.36;100.00;97234.44;5090265;28;20406;-77
2023/06/11 04:50:12;;;;;;;9.38;7.80;;;;;;;18.42;100.00;97238.56;5091057;28;20512;-77
2023/06/11 04:52:38;;;;;;;8.67;7.57;;;;;;;18.48;100.00;97240.84;5093987;28;20394;-77
2023/06/11 04:55:11;;;;;;;7.93;7.00;;;;;;;18.55;100.00;97241.22;5093929;28;20883;-77
2023/06/11 04:57:38;;;;;;;8.48;7.50;;;;;;;18.65;100.00;97240.19;5093779;28;20394;-77
2023/06/11 05:00:10;;;;;;;8.13;6.65;;;;;;;18.72;100.00;97243.22;5093892;28;20403;-77
2023/06/11 05:02:37;;;;;;;11.43;9.23;;;;;;;18.82;100.00;97229.56;5093798;28;20394;-77
2023/06/11 05:05:05;;;;;;;8.77;7.50;;;;;;;18.88;100.00;97236.38;5093660;28;20775;-77
2023/06/11 05:07:32;;;;;;;8.85;7.72;;;;;;;18.99;100.00;97238.81;5093455;28;20400;-77
2023/06/11 05:09:58;;;;;;;9.10;7.70;;;;;;;19.06;100.00;97241.84;5093444;28;20420;-77
2023/06/11 05:12:26;;;;;;;8.63;7.63;;;;;;;19.12;100.00;97244.06;5093617;28;20402;-77
2023/06/11 05:14:52;;;;;;;8.30;7.10;;;;;;;19.20;100.00;97248.69;5093532;28;20390;-77
2023/06/11 05:17:18;;;;;;;6.88;6.18;;;;;;;19.29;100.00;97249.50;5093429;28;20895;-77
2023/06/11 05:19:45;;;;;;;7.18;6.07;;;;;;;19.37;100.00;97255.22;5093510;28;20397;-77
2023/06/11 05:22:11;;;;;;;8.23;6.73;;;;;;;19.44;100.00;97258.25;5093267;28;20968;-76
2023/06/11 05:24:41;;;;;;;7.45;6.38;;;;;;;19.49;100.00;97253.56;5093256;28;20820;-76
2023/06/11 05:27:07;;;;;;;7.83;6.40;;;;;;;19.55;100.00;97259.56;5093281;28;20512;-76
2023/06/11 05:29:36;;;;;;;8.02;6.22;;;;;;;19.62;100.00;97252.63;5093194;28;20487;-77
2023/06/11 05:32:02;;;;;;;8.07;6.20;;;;;;;19.67;100.00;97255.19;5093175;28;20482;-76
2023/06/11 05:34:30;;;;;;;9.95;6.80;;;;;;;19.71;100.00;97255.34;5093177;28;20403;-76
2023/06/11 05:36:56;;;;;;;8.65;6.25;;;;;;;19.77;100.00;97258.69;5093103;28;20406;-76
2023/06/11 05:39:22;;;;;;;8.02;6.65;;;;;;;19.81;100.00;97251.56;5093242;28;20394;-77
2023/06/11 05:41:48;;;;;;;9.23;6.57;;;;;;;19.82;100.00;97262.00;5093005;28;20398;-76
2023/06/11 05:44:17;;;;;;;11.23;6.90;;;;;;;19.86;100.00;97260.28;5090036;28;20906;-76
2023/06/11 05:46:45;;;;;;;7.88;6.65;;;;;;;19.88;100.00;97263.44;5081051;28;20897;-76
2023/06/11 05:49:11;;;;;;;6.77;5.93;;;;;;;19.89;100.00;97265.03;5083663;28;20414;-78
2023/06/11 05:51:37;;;;;;;8.27;6.28;;;;;;;19.87;100.00;97267.22;5083589;28;20403;-77
2023/06/11 05:54:04;;;;;;;9.32;6.95;;;;;;;19.87;100.00;97269.91;5083029;28;20408;-77
2023/06/11 05:56:30;;;;;;;8.02;6.40;;;;;;;19.90;100.00;97266.63;5081997;28;20415;-77
2023/06/11 05:58:56;;;;;;;8.05;6.53;;;;;;;19.89;100.00;97269.59;5080745;28;20425;-77
2023/06/11 06:01:28;;;;;;;6.70;6.00;;;;;;;19.91;100.00;97273.56;5082530;28;20763;-76
2023/06/11 06:03:56;;;;;;;8.43;6.13;;;;;;;19.92;100.00;97285.13;5097954;28;20407;-77
2023/06/11 06:06:22;;;;;;;8.32;6.32;;;;;;;19.91;100.00;97278.16;5080356;28;20432;-77
2023/06/11 06:08:51;;;;;;;8.80;6.90;;;;;;;19.85;100.00;97287.44;5081126;28;20484;-75
2023/06/11 06:11:17;;;;;;;10.23;6.93;;;;;;;19.82;100.00;97283.50;5105225;27;20420;-76
2023/06/11 06:13:43;;;;;;;8.05;6.60;;;;;;;19.82;100.00;97280.81;5098064;28;20830;-80
2023/06/11 06:16:09;;;;;;;9.35;6.45;;;;;;;19.84;100.00;97294.75;5098738;28;20459;-81
2023/06/11 06:18:37;;;;;;;9.30;6.63;;;;;;;19.79;100.00;97297.53;5097846;28;20406;-78
2023/06/11 06:21:04;;;;;;;9.98;6.50;;;;;;;19.82;100.00;97293.47;5099136;28;20390;-79
2023/06/11 06:23:31;;;;;;;9.88;7.00;;;;;;;19.87;100.00;97291.41;5098261;28;20883;-78
2023/06/11 06:25:58;;;;;;;7.78;6.10;;;;;;;19.89;100.00;97294.59;5096501;28;20401;-78
2023/06/11 06:28:24;;;;;;;8.63;6.47;;;;;;;19.96;100.00;97300.28;5098873;28;20441;-78
2023/06/11 06:30:51;;;;;;;8.18;6.07;;;;;;;19.96;100.00;97296.81;5098452;28;20459;-79
2023/06/11 06:33:17;;;;;;;7.38;5.82;;;;;;;20.02;100.00;97303.59;5092477;28;20737;-77
2023/06/11 06:35:43;;;;;;;9.93;6.78;;;;;;;19.98;100.00;97310.72;5092747;28;20829;-78
2023/06/11 06:38:10;;;;;;;10.17;6.30;;;;;;;20.03;100.00;97305.97;5084916;28;20413;-78
2023/06/11 06:40:37;;;;;;;9.45;6.30;;;;;;;20.03;100.00;97307.88;5093440;28;20416;-77
2023/06/11 06:43:03;;;;;;;8.90;6.20;;;;;;;20.09;100.00;97307.41;5094462;27;20398;-78
2023/06/11 06:45:29;;;;;;;8.65;6.05;;;;;;;20.12;100.00;97305.22;5075622;28;20411;-79
2023/06/11 06:47:55;;;;;;;9.68;6.00;;;;;;;20.22;100.00;97304.91;5092497;28;20402;-80
2023/06/11 06:50:22;;;;;;;8.15;6.00;;;;;;;20.15;100.00;97307.28;5091546;28;20761;-78
2023/06/11 06:52:48;;;;;;;6.55;5.63;;;;;;;20.15;100.00;97305.34;5082526;28;20412;-76
2023/06/11 06:55:17;;;;;;;8.93;6.07;;;;;;;20.18;100.00;97301.25;5082767;28;20474;-78
2023/06/11 06:57:44;;;;;;;6.93;5.57;;;;;;;20.24;100.00;97308.84;5079410;28;20411;-77
2023/06/11 07:00:12;;;;;;;9.70;6.30;;;;;;;20.28;100.00;97309.81;5072467;28;20392;-79
2023/06/11 07:02:38;;;;;;;8.48;5.93;;;;;;;20.28;100.00;97301.75;5085764;28;20423;-78
2023/06/11 07:05:04;;;;;;;8.07;5.70;;;;;;;20.34;100.00;97307.78;5101054;28;20398;-77
2023/06/11 07:07:30;;;;;;;9.23;5.70;;;;;;;20.42;100.00;97304.31;5084702;28;20447;-76
2023/06/11 07:09:57;;;;;;;7.95;5.78;;;;;;;20.45;100.00;97306.34;5089658;28;20500;-79
2023/06/11 07:12:24;;;;;;;8.13;5.80;;;;;;;20.45;100.00;97300.97;5091106;28;20408;-80
2023/06/11 07:14:51;;;;;;;9.52;6.07;;;;;;;20.49;100.00;97312.69;5089663;28;20410;-79
2023/06/11 07:17:18;;;;;;;8.93;6.00;;;;;;;20.57;100.00;97308.44;5084444;28;20402;-78
2023/06/11 07:19:44;;;;;;;8.50;5.82;;;;;;;20.58;100.00;97305.41;5088297;28;20392;-79
2023/06/11 07:22:10;;;;;;;9.32;5.70;;;;;;;20.67;100.00;97300.03;5093033;28;20390;-78
2023/06/11 07:24:37;;;;;;;9.68;5.80;;;;;;;20.57;100.00;97297.66;5090412;28;20522;-76
2023/06/11 07:27:04;;;;;;;6.10;5.50;;;;;;;20.61;100.00;97303.97;5077362;28;20487;-77
2023/06/11 07:29:32;;;;;;;6.30;5.20;;;;;;;20.70;100.00;97304.78;5089052;28;20486;-77
2023/06/11 07:31:58;;;;;;;7.45;5.40;;;;;;;20.74;100.00;97309.22;5072087;28;20407;-77
2023/06/11 07:34:25;;;;;;;11.13;5.53;;;;;;;20.89;100.00;97310.63;5080638;28;20751;-77
2023/06/11 07:36:51;;;;;;;8.10;5.85;;;;;;;20.89;100.00;97309.81;5086506;28;20402;-77
2023/06/11 07:39:18;;;;;;;7.57;5.93;;;;;;;20.95;100.00;97311.22;5081394;28;20945;-78
2023/06/11 07:41:44;;;;;;;9.93;5.27;;;;;;;20.95;100.00;97312.03;5087224;28;20400;-76
2023/06/11 07:44:10;;;;;;;6.72;5.65;;;;;;;20.93;100.00;97298.09;5086014;28;20441;-78
2023/06/11 07:46:38;;;;;;;7.22;5.13;;;;;;;21.00;100.00;97313.75;5084651;28;20407;-76
2023/06/11 07:49:04;;;;;;;7.80;5.07;;;;;;;20.91;100.00;97312.97;5085784;28;20827;-76
2023/06/11 07:51:31;;;;;;;6.75;5.30;;;;;;;20.98;100.00;97305.97;5087455;28;20485;-75
2023/06/11 07:53:58;;;;;;;9.40;5.30;;;;;;;21.01;100.00;97312.63;5090570;28;20394;-76
2023/06/11 07:56:26;;;;;;;6.85;5.07;;;;;;;21.14;100.00;97311.66;5086201;28;20402;-76
2023/06/11 07:58:52;;;;;;;8.32;5.80;;;;;;;21.17;100.00;97314.53;5090587;28;20409;-76
2023/06/11 08:01:18;;;;;;;16.55;8.07;;;;;;;21.28;100.00;97324.94;5086814;28;20390;-76
2023/06/11 08:03:46;;;;;;;10.43;6.05;;;;;;;21.30;100.00;97315.44;5086568;28;20398;-77
2023/06/11 08:06:12;;;;;;;7.10;5.00;;;;;;;21.39;100.00;97318.09;5087656;28;20410;-77
2023/06/11 08:08:38;;;;;;;10.88;5.07;;;;;;;21.38;99.32;97313.84;5094867;28;20474;-79
2023/06/11 08:11:05;;;;;;;7.20;5.20;;;;;;;21.51;100.00;97302.84;5094503;28;20504;-79
2023/06/11 08:13:32;;;;;;;7.10;5.10;;;;;;;21.59;98.67;97306.59;5094856;28;20402;-78
2023/06/11 08:15:58;;;;;;;8.20;4.90;;;;;;;21.66;96.71;97314.19;5093787;28;20398;-78
2023/06/11 08:18:25;;;;;;;8.87;5.37;;;;;;;21.75;100.00;97304.16;5093998;28;20879;-77
2023/06/11 08:20:53;;;;;;;5.95;4.60;;;;;;;21.83;100.00;97303.31;5094219;28;20756;-78
2023/06/11 08:23:20;;;;;;;7.05;5.07;;;;;;;21.96;100.00;97294.22;5093827;28;20823;-78
2023/06/11 08:25:46;;;;;;;4.85;4.20;;;;;;;22.02;100.00;97292.97;5093935;28;20393;-78
2023/06/11 08:28:12;;;;;;;6.07;4.93;;;;;;;22.10;100.00;97289.41;5095177;28;20459;-77
2023/06/11 08:30:39;;;;;;;7.38;4.57;;;;;;;22.22;100.00;97289.47;5095442;28;20927;-78
2023/06/11 08:33:05;;;;;;;5.87;4.33;;;;;;;22.32;100.00;97288.31;5095974;28;20402;-77
2023/06/11 08:35:31;;;;;;;6.38;4.25;;;;;;;22.43;100.00;97294.88;5095885;28;20485;-77
2023/06/11 08:37:59;;;;;;;5.78;4.85;;;;;;;22.37;88.97;97293.50;5094904;28;20412;-77
2023/06/11 08:40:26;;;;;;;7.97;4.65;;;;;;;22.37;90.26;97288.09;5095760;28;20400;-77
2023/06/11 08:42:53;;;;;;;5.45;4.10;;;;;;;22.55;96.23;97291.44;5094274;28;20410;-76
2023/06/11 08:45:19;;;;;;;7.20;4.95;;;;;;;22.52;90.85;97286.69;5094705;28;20409;-79
2023/06/11 08:47:52;;;;;;;6.10;4.70;;;;;;;22.51;87.13;97291.31;5094494;28;20451;-77
2023/06/11 08:50:21;;;;;;;8.00;4.78;;;;;;;22.53;87.26;97296.38;5092716;28;20412;-72
2023/06/11 08:52:53;;;;;;;7.90;4.40;;;;;;;22.47;78.09;97286.91;5092124;28;20428;-73
2023/06/11 08:55:21;;;;;;;6.20;4.95;;;;;;;22.58;84.87;97283.47;5092156;28;20529;-75
2023/06/11 08:57:52;;;;;;;6.35;4.38;;;;;;;22.69;93.16;97275.75;5085786;28;20747;-74
2023/06/11 09:00:21;;;;;;;5.20;4.38;;;;;;;22.73;85.19;97284.75;5084752;28;20386;-74
2023/06/11 09:02:48;;;;;;;6.60;4.68;;;;;;;22.94;88.12;97292.84;5085174;28;20398;-73
2023/06/11 09:05:14;;;;;;;7.03;4.80;;;;;;;23.06;91.70;97284.78;5082485;28;20411;-75
2023/06/11 09:07:48;;;;;;;6.15;4.32;;;;;;;23.25;96.37;97293.13;5088122;28;20394;-74
2023/06/11 09:10:15;;;;;;;7.30;4.72;;;;;;;23.30;81.20;97279.44;5084392;28;20412;-74
2023/06/11 09:12:44;;;;;;;5.60;4.37;;;;;;;23.38;89.05;97281.22;5083508;28;20878;-76
2023/06/11 09:15:12;;;;;;;6.25;4.15;;;;;;;23.48;92.73;97275.41;5081871;28;20403;-74
2023/06/11 09:17:40;;;;;;;5.65;4.50;;;;;;;23.65;96.68;97282.53;5083519;28;20402;-75
2023/06/11 09:20:10;;;;;;;6.80;4.80;;;;;;;23.84;91.71;97271.13;5084160;28;20388;-74
2023/06/11 09:22:37;;;;;;;6.33;4.33;;;;;;;24.07;93.15;97291.16;5083399;28;20404;-75
2023/06/11 09:25:05;;;;;;;5.95;4.20;;;;;;;24.17;82.83;97279.06;5082705;28;20473;-73
2023/06/11 09:27:32;;;;;;;5.65;4.45;;;;;;;24.01;78.31;97284.41;5083369;28;20401;-75
2023/06/11 09:30:08;;;;;;;6.43;4.43;;;;;;;23.88;72.62;97274.75;5082674;28;20468;-75
2023/06/11 09:32:38;;;;;;;7.25;4.85;;;;;;;23.71;73.31;97266.84;5084703;28;20435;-75
2023/06/11 09:35:06;;;;;;;5.77;4.27;;;;;;;23.72;81.02;97273.84;5082470;28;20401;-75
2023/06/11 09:37:38;;;;;;;8.32;4.05;;;;;;;23.75;88.22;97279.38;5082124;28;20416;-75
2023/06/11 09:40:07;;;;;;;6.38;4.43;;;;;;;23.88;93.75;97280.94;5083378;28;20384;-74
2023/06/11 09:42:34;;;;;;;5.10;4.30;;;;;;;23.98;95.27;97273.50;5081686;28;20400;-74
2023/06/11 09:45:02;;;;;;;5.95;4.00;;;;;;;24.08;92.60;97270.31;5083430;28;20486;-74
2023/06/11 09:47:31;;;;;;;12.68;5.00;;;;;;;24.26;78.38;97271.66;5072839;28;20844;-73
2023/06/11 09:49:58;;;;;;;5.43;4.07;;;;;;;24.32;74.04;97267.56;5080391;28;20450;-73
2023/06/11 09:52:25;;;;;;;8.68;4.40;;;;;;;24.29;76.65;97279.84;5093842;28;20415;-74
2023/06/11 09:54:52;;;;;;;5.00;3.90;;;;;;;24.38;75.92;97276.22;5091824;28;20396;-74
2023/06/11 09:57:20;;;;;;;5.03;3.95;;;;;;;24.44;73.71;97275.63;5077944;28;20453;-75
2023/06/11 09:59:47;;;;;;;7.40;4.10;;;;;;;24.45;69.08;97271.81;5080860;28;20402;-76
2023/06/11 10:02:14;;;;;;;4.53;3.80;;;;;;;24.52;74.49;97280.13;5093075;28;20394;-76
2023/06/11 10:04:43;;;;;;;4.63;3.78;;;;;;;24.55;78.33;97268.63;5091837;28;20432;-76
2023/06/11 10:07:11;;;;;;;4.45;3.60;;;;;;;24.62;80.84;97273.44;5087764;28;20781;-75
2023/06/11 10:09:39;;;;;;;5.43;3.60;;;;;;;24.70;79.02;97275.22;5072319;28;20494;-75
2023/06/11 10:12:06;;;;;;;7.18;4.00;;;;;;;24.80;73.32;97266.59;5072581;28;20568;-75
2023/06/11 10:14:35;;;;;;;7.45;4.07;;;;;;;24.87;75.97;97274.13;5076937;28;20394;-76
2023/06/11 10:17:07;;;;;;;4.88;4.00;;;;;;;24.88;75.43;97275.72;5083728;28;20404;-76
2023/06/11 10:19:34;;;;;;;5.70;3.80;;;;;;;24.91;76.86;97272.31;5085696;28;20408;-76
2023/06/11 10:22:03;;;;;;;8.68;4.10;;;;;;;25.00;78.50;97284.56;5089142;28;20408;-77
2023/06/11 10:24:29;;;;;;;4.97;3.70;;;;;;;25.19;81.47;97280.38;5092255;28;20444;-76
2023/06/11 10:27:13;;;;;;;5.65;3.88;;;;;;;25.30;80.87;97274.13;5091729;28;20405;-76
2023/06/11 10:29:42;;;;;;;4.75;3.72;;;;;;;25.45;83.02;97269.84;5089806;28;20471;-76
2023/06/11 10:32:15;;;;;;;5.33;3.97;;;;;;;25.45;80.33;97269.84;5087898;28;20402;-76
2023/06/11 10:34:42;;;;;;;5.43;3.80;;;;;;;25.45;78.32;97273.34;5089895;28;20431;-77
2023/06/11 10:37:11;;;;;;;4.78;3.92;;;;;;;25.53;76.77;97271.59;5092141;28;20398;-77
2023/06/11 10:39:49;;;;;;;6.10;4.30;;;;;;;25.55;74.45;97260.41;5089454;28;20823;-76
2023/06/11 10:42:23;;;;;;;6.97;4.30;;;;;;;25.63;69.81;97267.59;5091202;28;20941;-76
2023/06/11 10:44:50;;;;;;;8.48;4.53;;;;;;;25.57;60.60;97264.31;5090734;28;20879;-75
2023/06/11 10:47:16;;;;;;;5.97;3.80;;;;;;;25.65;58.18;97263.38;5091530;28;20514;-77
2023/06/11 10:49:43;;;;;;;8.07;4.20;;;;;;;25.64;53.87;97266.44;5091305;28;20406;-76
2023/06/11 10:52:11;;;;;;;8.15;4.18;;;;;;;25.55;54.61;97265.81;5092038;28;20749;-77
2023/06/11 10:54:37;;;;;;;7.57;4.40;;;;;;;25.49;52.87;97270.69;5090740;28;20983;-76
2023/06/11 10:57:05;;;;;;;5.17;4.03;;;;;;;25.60;57.61;97271.00;5087221;28;20398;-78
2023/06/11 10:59:32;;;;;;;7.15;4.20;;;;;;;25.73;63.39;97267.03;5090727;28;20786;-77
2023/06/11 11:01:58;;;;;;;7.72;4.13;;;;;;;25.85;62.63;97261.53;5089784;28;20895;-77
2023/06/11 11:04:25;;;;;;;6.57;3.95;;;;;;;25.93;64.43;97260.53;5085099;28;20540;-78
2023/06/11 11:07:03;;;;;;;5.57;4.30;;;;;;;25.98;62.39;97267.59;5084680;28;20434;-78
2023/06/11 11:09:30;;;;;;;7.93;4.80;;;;;;;26.02;57.53;97257.59;5081844;28;20414;-77
2023/06/11 11:11:59;;;;;;;7.73;3.97;;;;;;;26.23;63.89;97260.81;5086504;28;20404;-76
2023/06/11 11:14:27;;;;;;;8.70;4.32;;;;;;;26.00;52.19;97259.91;5086566;28;20398;-78
2023/06/11 11:16:55;;;;;;;8.77;4.18;;;;;;;26.08;57.54;97254.28;5080320;28;20429;-79
2023/06/11 11:19:24;;;;;;;4.53;3.77;;;;;;;26.23;63.76;97258.09;5083954;28;20490;-78
2023/06/11 11:21:51;;;;;;;6.75;4.40;;;;;;;26.08;54.06;97262.44;5090742;28;20477;-77
2023/06/11 11:24:17;;;;;;;5.97;3.90;;;;;;;26.19;56.06;97260.72;5092159;28;20891;-78
2023/06/11 11:26:47;;;;;;;7.38;4.30;;;;;;;26.12;52.84;97254.34;5088808;28;20453;-76
2023/06/11 11:29:13;;;;;;;8.65;4.00;;;;;;;26.08;53.52;97248.88;5097267;28;20875;-76